sensor_id;sensor_type;location;lat;lon;timestamp;P1;durP1;ratioP1;P2;durP2;ratioP2
57567;SDS011;43403;51.948;5.922;2023-03-13T00:00:55;20.05;;;3.97;;
57567;SDS011;43403;51.948;5.922;2023-03-13T00:03:22;21.20;;;4.22;;
57567;SDS011;43403;51.948;5.922;2023-03-13T00:05:49;15.18;;;3.50;;
57567;SDS011;43403;51.948;5.922;2023-03-13T00:08:20;20.05;;;3.92;;
57567;SDS011;43403;51.948;5.922;2023-03-13T00:10:46;18.77;;;3.58;;
57567;SDS011;43403;51.948;5.922;2023-03-13T00:13:13;21.27;;;3.78;;
57567;SDS011;43403;51.948;5.922;2023-03-13T00:15:40;19.00;;;3.75;;
57567;SDS011;43403;51.948;5.922;2023-03-13T00:18:06;23.38;;;4.43;;
57567;SDS011;43403;51.948;5.922;2023-03-13T00:20:32;26.48;;;4.65;;
57567;SDS011;43403;51.948;5.922;2023-03-13T00:22:59;15.82;;;3.65;;
57567;SDS011;43403;51.948;5.922;2023-03-13T00:25:25;20.88;;;3.72;;
57567;SDS011;43403;51.948;5.922;2023-03-13T00:27:52;19.35;;;4.60;;
57567;SDS011;43403;51.948;5.922;2023-03-13T00:30:19;17.08;;;3.92;;
57567;SDS011;43403;51.948;5.922;2023-03-13T00:32:45;19.17;;;3.33;;
57567;SDS011;43403;51.948;5.922;2023-03-13T00:35:13;19.83;;;3.08;;
57567;SDS011;43403;51.948;5.922;2023-03-13T00:37:40;13.95;;;3.13;;
57567;SDS011;43403;51.948;5.922;2023-03-13T00:40:07;19.85;;;3.67;;
57567;SDS011;43403;51.948;5.922;2023-03-13T00:42:35;16.77;;;3.60;;
57567;SDS011;43403;51.948;5.922;2023-03-13T00:45:02;20.83;;;3.75;;
57567;SDS011;43403;51.948;5.922;2023-03-13T00:47:29;17.02;;;3.53;;
57567;SDS011;43403;51.948;5.922;2023-03-13T00:49:55;13.20;;;3.33;;
57567;SDS011;43403;51.948;5.922;2023-03-13T00:52:22;27.90;;;4.43;;
57567;SDS011;43403;51.948;5.922;2023-03-13T00:54:49;17.77;;;3.30;;
57567;SDS011;43403;51.948;5.922;2023-03-13T00:57:16;20.33;;;3.55;;
57567;SDS011;43403;51.948;5.922;2023-03-13T00:59:42;16.77;;;3.75;;
57567;SDS011;43403;51.948;5.922;2023-03-13T01:02:09;22.13;;;4.13;;
57567;SDS011;43403;51.948;5.922;2023-03-13T01:04:36;20.27;;;3.38;;
57567;SDS011;43403;51.948;5.922;2023-03-13T01:07:02;21.30;;;3.45;;
57567;SDS011;43403;51.948;5.922;2023-03-13T01:09:29;21.02;;;3.38;;
57567;SDS011;43403;51.948;5.922;2023-03-13T01:11:55;15.38;;;3.28;;
57567;SDS011;43403;51.948;5.922;2023-03-13T01:14:22;14.50;;;3.85;;
57567;SDS011;43403;51.948;5.922;2023-03-13T01:16:48;22.00;;;3.90;;
57567;SDS011;43403;51.948;5.922;2023-03-13T01:19:15;18.15;;;4.55;;
57567;SDS011;43403;51.948;5.922;2023-03-13T01:21:42;20.38;;;4.03;;
57567;SDS011;43403;51.948;5.922;2023-03-13T01:24:10;25.65;;;4.07;;
57567;SDS011;43403;51.948;5.922;2023-03-13T01:26:37;16.67;;;3.58;;
57567;SDS011;43403;51.948;5.922;2023-03-13T01:29:04;19.58;;;3.95;;
57567;SDS011;43403;51.948;5.922;2023-03-13T01:31:32;22.45;;;4.30;;
57567;SDS011;43403;51.948;5.922;2023-03-13T01:34:02;18.00;;;3.63;;
57567;SDS011;43403;51.948;5.922;2023-03-13T01:36:30;17.88;;;4.60;;
57567;SDS011;43403;51.948;5.922;2023-03-13T01:38:58;21.05;;;4.22;;
57567;SDS011;43403;51.948;5.922;2023-03-13T01:41:26;15.90;;;3.22;;
57567;SDS011;43403;51.948;5.922;2023-03-13T01:43:55;13.75;;;2.97;;
57567;SDS011;43403;51.948;5.922;2023-03-13T01:46:22;12.23;;;3.53;;
57567;SDS011;43403;51.948;5.922;2023-03-13T01:48:55;23.92;;;4.28;;
57567;SDS011;43403;51.948;5.922;2023-03-13T01:51:32;19.73;;;4.35;;
57567;SDS011;43403;51.948;5.922;2023-03-13T01:54:03;11.13;;;2.85;;
57567;SDS011;43403;51.948;5.922;2023-03-13T01:56:51;10.27;;;3.33;;
57567;SDS011;43403;51.948;5.922;2023-03-13T01:59:33;13.55;;;3.85;;
57567;SDS011;43403;51.948;5.922;2023-03-13T02:02:05;14.02;;;3.20;;
57567;SDS011;43403;51.948;5.922;2023-03-13T02:04:37;11.32;;;3.30;;
57567;SDS011;43403;51.948;5.922;2023-03-13T02:07:10;12.00;;;3.00;;
57567;SDS011;43403;51.948;5.922;2023-03-13T02:09:56;11.03;;;3.03;;
57567;SDS011;43403;51.948;5.922;2023-03-13T02:12:25;9.50;;;2.75;;
57567;SDS011;43403;51.948;5.922;2023-03-13T02:14:57;8.27;;;2.25;;
57567;SDS011;43403;51.948;5.922;2023-03-13T02:17:26;12.30;;;3.30;;
57567;SDS011;43403;51.948;5.922;2023-03-13T02:19:54;11.15;;;2.92;;
57567;SDS011;43403;51.948;5.922;2023-03-13T02:27:51;9.43;;;3.20;;
57567;SDS011;43403;51.948;5.922;2023-03-13T02:30:39;9.82;;;3.38;;
57567;SDS011;43403;51.948;5.922;2023-03-13T02:33:08;10.48;;;3.28;;
57567;SDS011;43403;51.948;5.922;2023-03-13T02:38:05;12.77;;;3.20;;
57567;SDS011;43403;51.948;5.922;2023-03-13T02:40:36;10.05;;;3.33;;
57567;SDS011;43403;51.948;5.922;2023-03-13T02:43:10;8.90;;;3.58;;
57567;SDS011;43403;51.948;5.922;2023-03-13T02:45:40;14.10;;;3.75;;
57567;SDS011;43403;51.948;5.922;2023-03-13T02:48:07;10.82;;;3.97;;
57567;SDS011;43403;51.948;5.922;2023-03-13T02:50:33;10.48;;;4.03;;
57567;SDS011;43403;51.948;5.922;2023-03-13T02:53:02;13.98;;;3.60;;
57567;SDS011;43403;51.948;5.922;2023-03-13T02:55:34;8.95;;;3.58;;
57567;SDS011;43403;51.948;5.922;2023-03-13T02:58:06;9.38;;;4.00;;
57567;SDS011;43403;51.948;5.922;2023-03-13T03:00:33;10.63;;;4.45;;
57567;SDS011;43403;51.948;5.922;2023-03-13T03:03:00;7.73;;;3.60;;
57567;SDS011;43403;51.948;5.922;2023-03-13T03:05:27;11.70;;;4.47;;
57567;SDS011;43403;51.948;5.922;2023-03-13T03:07:54;7.22;;;3.70;;
57567;SDS011;43403;51.948;5.922;2023-03-13T03:10:20;7.85;;;3.67;;
57567;SDS011;43403;51.948;5.922;2023-03-13T03:12:47;7.63;;;4.22;;
57567;SDS011;43403;51.948;5.922;2023-03-13T03:15:13;9.23;;;3.60;;
57567;SDS011;43403;51.948;5.922;2023-03-13T03:17:40;11.60;;;4.90;;
57567;SDS011;43403;51.948;5.922;2023-03-13T03:20:06;9.85;;;4.50;;
57567;SDS011;43403;51.948;5.922;2023-03-13T03:22:37;9.30;;;5.05;;
57567;SDS011;43403;51.948;5.922;2023-03-13T03:25:06;9.43;;;4.53;;
57567;SDS011;43403;51.948;5.922;2023-03-13T03:27:34;13.48;;;5.00;;
57567;SDS011;43403;51.948;5.922;2023-03-13T03:30:02;10.07;;;4.43;;
57567;SDS011;43403;51.948;5.922;2023-03-13T03:32:30;8.02;;;3.97;;
57567;SDS011;43403;51.948;5.922;2023-03-13T03:34:57;9.65;;;4.57;;
57567;SDS011;43403;51.948;5.922;2023-03-13T03:37:24;13.63;;;4.72;;
57567;SDS011;43403;51.948;5.922;2023-03-13T03:39:50;9.52;;;4.50;;
57567;SDS011;43403;51.948;5.922;2023-03-13T03:42:17;9.23;;;4.63;;
57567;SDS011;43403;51.948;5.922;2023-03-13T03:44:43;17.17;;;5.72;;
57567;SDS011;43403;51.948;5.922;2023-03-13T03:47:10;12.73;;;5.80;;
57567;SDS011;43403;51.948;5.922;2023-03-13T03:49:36;9.43;;;4.90;;
57567;SDS011;43403;51.948;5.922;2023-03-13T03:52:03;10.15;;;4.90;;
57567;SDS011;43403;51.948;5.922;2023-03-13T03:54:30;11.98;;;5.10;;
57567;SDS011;43403;51.948;5.922;2023-03-13T03:56:56;10.82;;;5.10;;
57567;SDS011;43403;51.948;5.922;2023-03-13T03:59:23;8.05;;;4.05;;
57567;SDS011;43403;51.948;5.922;2023-03-13T04:01:49;10.05;;;5.45;;
57567;SDS011;43403;51.948;5.922;2023-03-13T04:04:16;8.57;;;4.53;;
57567;SDS011;43403;51.948;5.922;2023-03-13T04:06:43;13.20;;;5.25;;
57567;SDS011;43403;51.948;5.922;2023-03-13T04:09:09;10.48;;;4.90;;
57567;SDS011;43403;51.948;5.922;2023-03-13T04:11:36;6.50;;;4.28;;
57567;SDS011;43403;51.948;5.922;2023-03-13T04:14:02;10.00;;;4.95;;
57567;SDS011;43403;51.948;5.922;2023-03-13T04:16:29;8.38;;;4.35;;
57567;SDS011;43403;51.948;5.922;2023-03-13T04:18:55;8.93;;;4.60;;
57567;SDS011;43403;51.948;5.922;2023-03-13T04:21:22;6.60;;;4.50;;
57567;SDS011;43403;51.948;5.922;2023-03-13T04:23:48;6.10;;;4.07;;
57567;SDS011;43403;51.948;5.922;2023-03-13T04:26:15;7.15;;;4.82;;
57567;SDS011;43403;51.948;5.922;2023-03-13T04:28:42;10.43;;;4.88;;
57567;SDS011;43403;51.948;5.922;2023-03-13T04:31:08;7.47;;;4.57;;
57567;SDS011;43403;51.948;5.922;2023-03-13T04:33:35;10.65;;;4.85;;
57567;SDS011;43403;51.948;5.922;2023-03-13T04:36:02;7.18;;;4.80;;
57567;SDS011;43403;51.948;5.922;2023-03-13T04:38:29;7.50;;;4.45;;
57567;SDS011;43403;51.948;5.922;2023-03-13T04:40:55;20.58;;;5.60;;
57567;SDS011;43403;51.948;5.922;2023-03-13T04:43:22;13.25;;;5.55;;
57567;SDS011;43403;51.948;5.922;2023-03-13T04:45:50;9.23;;;4.85;;
57567;SDS011;43403;51.948;5.922;2023-03-13T04:48:19;7.07;;;4.57;;
57567;SDS011;43403;51.948;5.922;2023-03-13T04:50:46;7.00;;;4.53;;
57567;SDS011;43403;51.948;5.922;2023-03-13T04:53:13;8.85;;;5.00;;
57567;SDS011;43403;51.948;5.922;2023-03-13T04:55:40;6.35;;;4.57;;
57567;SDS011;43403;51.948;5.922;2023-03-13T04:58:07;11.15;;;5.70;;
57567;SDS011;43403;51.948;5.922;2023-03-13T05:00:33;7.78;;;5.70;;
57567;SDS011;43403;51.948;5.922;2023-03-13T05:03:00;9.75;;;5.28;;
57567;SDS011;43403;51.948;5.922;2023-03-13T05:05:27;8.65;;;5.15;;
57567;SDS011;43403;51.948;5.922;2023-03-13T05:07:53;9.48;;;5.43;;
57567;SDS011;43403;51.948;5.922;2023-03-13T05:10:20;8.32;;;5.13;;
57567;SDS011;43403;51.948;5.922;2023-03-13T05:12:47;10.02;;;5.20;;
57567;SDS011;43403;51.948;5.922;2023-03-13T05:15:13;7.63;;;4.97;;
57567;SDS011;43403;51.948;5.922;2023-03-13T05:17:40;8.60;;;4.90;;
57567;SDS011;43403;51.948;5.922;2023-03-13T05:20:06;7.18;;;4.05;;
57567;SDS011;43403;51.948;5.922;2023-03-13T05:22:36;6.38;;;4.18;;
57567;SDS011;43403;51.948;5.922;2023-03-13T05:25:03;7.85;;;4.57;;
57567;SDS011;43403;51.948;5.922;2023-03-13T05:27:30;8.32;;;4.65;;
57567;SDS011;43403;51.948;5.922;2023-03-13T05:29:57;8.80;;;4.68;;
57567;SDS011;43403;51.948;5.922;2023-03-13T05:32:24;11.45;;;5.07;;
57567;SDS011;43403;51.948;5.922;2023-03-13T05:34:50;8.02;;;4.25;;
57567;SDS011;43403;51.948;5.922;2023-03-13T05:37:17;6.28;;;4.40;;
57567;SDS011;43403;51.948;5.922;2023-03-13T05:39:43;8.68;;;4.43;;
57567;SDS011;43403;51.948;5.922;2023-03-13T05:42:10;9.40;;;4.50;;
57567;SDS011;43403;51.948;5.922;2023-03-13T05:44:36;8.20;;;4.30;;
57567;SDS011;43403;51.948;5.922;2023-03-13T05:47:03;8.00;;;4.72;;
57567;SDS011;43403;51.948;5.922;2023-03-13T05:49:29;13.02;;;4.28;;
57567;SDS011;43403;51.948;5.922;2023-03-13T05:51:56;10.40;;;4.72;;
57567;SDS011;43403;51.948;5.922;2023-03-13T05:54:22;11.43;;;4.20;;
57567;SDS011;43403;51.948;5.922;2023-03-13T05:56:49;5.95;;;3.38;;
57567;SDS011;43403;51.948;5.922;2023-03-13T05:59:17;5.93;;;4.65;;
57567;SDS011;43403;51.948;5.922;2023-03-13T06:01:43;11.75;;;4.10;;
57567;SDS011;43403;51.948;5.922;2023-03-13T06:04:10;7.35;;;3.85;;
57567;SDS011;43403;51.948;5.922;2023-03-13T06:06:37;6.90;;;3.97;;
57567;SDS011;43403;51.948;5.922;2023-03-13T06:09:03;6.30;;;3.72;;
57567;SDS011;43403;51.948;5.922;2023-03-13T06:11:31;6.57;;;3.20;;
57567;SDS011;43403;51.948;5.922;2023-03-13T06:13:57;8.02;;;3.45;;
57567;SDS011;43403;51.948;5.922;2023-03-13T06:16:24;8.65;;;3.65;;
57567;SDS011;43403;51.948;5.922;2023-03-13T06:18:51;13.40;;;4.18;;
57567;SDS011;43403;51.948;5.922;2023-03-13T06:21:17;7.97;;;3.50;;
57567;SDS011;43403;51.948;5.922;2023-03-13T06:23:44;6.20;;;3.97;;
57567;SDS011;43403;51.948;5.922;2023-03-13T06:26:10;6.95;;;3.67;;
57567;SDS011;43403;51.948;5.922;2023-03-13T06:28:37;9.52;;;3.60;;
57567;SDS011;43403;51.948;5.922;2023-03-13T06:31:05;8.95;;;3.78;;
57567;SDS011;43403;51.948;5.922;2023-03-13T06:33:32;6.55;;;3.90;;
57567;SDS011;43403;51.948;5.922;2023-03-13T06:36:00;10.48;;;3.40;;
57567;SDS011;43403;51.948;5.922;2023-03-13T06:38:27;7.22;;;3.20;;
57567;SDS011;43403;51.948;5.922;2023-03-13T06:40:54;9.27;;;3.45;;
57567;SDS011;43403;51.948;5.922;2023-03-13T06:43:21;6.10;;;2.67;;
57567;SDS011;43403;51.948;5.922;2023-03-13T06:45:48;9.35;;;3.05;;
57567;SDS011;43403;51.948;5.922;2023-03-13T06:48:15;5.35;;;3.42;;
57567;SDS011;43403;51.948;5.922;2023-03-13T06:50:42;9.32;;;3.17;;
57567;SDS011;43403;51.948;5.922;2023-03-13T06:53:15;7.68;;;2.92;;
57567;SDS011;43403;51.948;5.922;2023-03-13T06:55:44;7.40;;;2.85;;
57567;SDS011;43403;51.948;5.922;2023-03-13T06:58:11;8.85;;;2.90;;
57567;SDS011;43403;51.948;5.922;2023-03-13T07:00:55;9.85;;;3.10;;
57567;SDS011;43403;51.948;5.922;2023-03-13T07:03:22;9.90;;;3.10;;
57567;SDS011;43403;51.948;5.922;2023-03-13T07:05:54;9.32;;;2.42;;
57567;SDS011;43403;51.948;5.922;2023-03-13T07:08:22;8.13;;;2.90;;
57567;SDS011;43403;51.948;5.922;2023-03-13T07:13:18;7.65;;;3.10;;
57567;SDS011;43403;51.948;5.922;2023-03-13T07:15:47;5.53;;;2.60;;
57567;SDS011;43403;51.948;5.922;2023-03-13T07:18:14;9.10;;;3.13;;
57567;SDS011;43403;51.948;5.922;2023-03-13T07:20:41;8.32;;;2.63;;
57567;SDS011;43403;51.948;5.922;2023-03-13T07:23:08;9.00;;;2.90;;
57567;SDS011;43403;51.948;5.922;2023-03-13T07:25:34;9.30;;;2.63;;
57567;SDS011;43403;51.948;5.922;2023-03-13T07:28:01;7.50;;;2.83;;
57567;SDS011;43403;51.948;5.922;2023-03-13T07:30:27;7.22;;;2.70;;
57567;SDS011;43403;51.948;5.922;2023-03-13T07:32:54;6.45;;;2.28;;
57567;SDS011;43403;51.948;5.922;2023-03-13T07:35:21;6.32;;;2.55;;
57567;SDS011;43403;51.948;5.922;2023-03-13T07:37:47;13.25;;;2.40;;
57567;SDS011;43403;51.948;5.922;2023-03-13T07:40:14;9.05;;;2.60;;
57567;SDS011;43403;51.948;5.922;2023-03-13T07:42:40;8.10;;;3.20;;
57567;SDS011;43403;51.948;5.922;2023-03-13T07:45:07;9.13;;;2.90;;
57567;SDS011;43403;51.948;5.922;2023-03-13T07:47:34;6.25;;;2.25;;
57567;SDS011;43403;51.948;5.922;2023-03-13T07:50:01;8.90;;;2.42;;
57567;SDS011;43403;51.948;5.922;2023-03-13T07:52:28;8.55;;;2.83;;
57567;SDS011;43403;51.948;5.922;2023-03-13T07:54:55;6.45;;;2.88;;
57567;SDS011;43403;51.948;5.922;2023-03-13T07:57:21;6.93;;;2.53;;
57567;SDS011;43403;51.948;5.922;2023-03-13T07:59:48;6.90;;;2.25;;
57567;SDS011;43403;51.948;5.922;2023-03-13T08:02:14;8.82;;;2.38;;
57567;SDS011;43403;51.948;5.922;2023-03-13T08:04:42;6.78;;;2.83;;
57567;SDS011;43403;51.948;5.922;2023-03-13T08:07:09;10.18;;;2.75;;
57567;SDS011;43403;51.948;5.922;2023-03-13T08:09:36;6.57;;;2.42;;
57567;SDS011;43403;51.948;5.922;2023-03-13T08:12:04;8.90;;;2.40;;
57567;SDS011;43403;51.948;5.922;2023-03-13T08:14:31;10.20;;;2.42;;
57567;SDS011;43403;51.948;5.922;2023-03-13T08:16:58;6.68;;;2.60;;
57567;SDS011;43403;51.948;5.922;2023-03-13T08:19:25;8.35;;;2.67;;
57567;SDS011;43403;51.948;5.922;2023-03-13T08:21:51;5.60;;;2.08;;
57567;SDS011;43403;51.948;5.922;2023-03-13T08:24:18;8.07;;;2.63;;
57567;SDS011;43403;51.948;5.922;2023-03-13T08:26:44;8.55;;;2.17;;
57567;SDS011;43403;51.948;5.922;2023-03-13T08:29:12;8.43;;;2.53;;
57567;SDS011;43403;51.948;5.922;2023-03-13T08:31:47;6.00;;;2.20;;
57567;SDS011;43403;51.948;5.922;2023-03-13T08:34:16;7.07;;;2.28;;
57567;SDS011;43403;51.948;5.922;2023-03-13T08:36:44;5.57;;;2.08;;
57567;SDS011;43403;51.948;5.922;2023-03-13T08:41:39;6.68;;;2.05;;
57567;SDS011;43403;51.948;5.922;2023-03-13T08:44:07;4.20;;;1.83;;
57567;SDS011;43403;51.948;5.922;2023-03-13T08:46:36;6.80;;;2.67;;
57567;SDS011;43403;51.948;5.922;2023-03-13T08:49:04;5.28;;;1.92;;
57567;SDS011;43403;51.948;5.922;2023-03-13T08:51:32;4.53;;;1.67;;
57567;SDS011;43403;51.948;5.922;2023-03-13T08:53:59;7.05;;;2.17;;
57567;SDS011;43403;51.948;5.922;2023-03-13T08:56:27;6.47;;;2.00;;
57567;SDS011;43403;51.948;5.922;2023-03-13T08:58:56;5.50;;;1.92;;
57567;SDS011;43403;51.948;5.922;2023-03-13T09:01:26;4.40;;;1.90;;
57567;SDS011;43403;51.948;5.922;2023-03-13T09:03:58;5.72;;;2.05;;
57567;SDS011;43403;51.948;5.922;2023-03-13T09:06:29;6.15;;;2.38;;
57567;SDS011;43403;51.948;5.922;2023-03-13T09:08:56;4.28;;;2.22;;
57567;SDS011;43403;51.948;5.922;2023-03-13T09:11:24;9.40;;;2.40;;
57567;SDS011;43403;51.948;5.922;2023-03-13T09:13:51;7.07;;;2.13;;
57567;SDS011;43403;51.948;5.922;2023-03-13T09:16:21;6.45;;;2.20;;
57567;SDS011;43403;51.948;5.922;2023-03-13T09:18:50;6.07;;;2.05;;
57567;SDS011;43403;51.948;5.922;2023-03-13T09:21:25;10.55;;;2.53;;
57567;SDS011;43403;51.948;5.922;2023-03-13T09:23:53;8.13;;;2.25;;
57567;SDS011;43403;51.948;5.922;2023-03-13T09:26:20;5.60;;;2.00;;
57567;SDS011;43403;51.948;5.922;2023-03-13T09:31:16;8.57;;;2.10;;
57567;SDS011;43403;51.948;5.922;2023-03-13T09:33:44;3.90;;;1.58;;
57567;SDS011;43403;51.948;5.922;2023-03-13T09:36:12;4.57;;;1.60;;
57567;SDS011;43403;51.948;5.922;2023-03-13T09:38:39;6.35;;;1.63;;
57567;SDS011;43403;51.948;5.922;2023-03-13T09:46:30;7.57;;;2.03;;
57567;SDS011;43403;51.948;5.922;2023-03-13T09:51:32;4.35;;;1.77;;
57567;SDS011;43403;51.948;5.922;2023-03-13T09:56:43;5.07;;;1.92;;
57567;SDS011;43403;51.948;5.922;2023-03-13T09:59:18;5.63;;;1.85;;
57567;SDS011;43403;51.948;5.922;2023-03-13T10:01:49;5.68;;;1.90;;
57567;SDS011;43403;51.948;5.922;2023-03-13T10:04:24;5.30;;;1.95;;
57567;SDS011;43403;51.948;5.922;2023-03-13T10:06:55;5.55;;;1.48;;
57567;SDS011;43403;51.948;5.922;2023-03-13T10:09:31;3.28;;;1.40;;
57567;SDS011;43403;51.948;5.922;2023-03-13T10:23:12;6.35;;;1.70;;
57567;SDS011;43403;51.948;5.922;2023-03-13T10:25:39;4.40;;;1.73;;
57567;SDS011;43403;51.948;5.922;2023-03-13T10:28:10;7.15;;;1.90;;
57567;SDS011;43403;51.948;5.922;2023-03-13T10:30:39;11.85;;;2.20;;
57567;SDS011;43403;51.948;5.922;2023-03-13T10:33:28;3.85;;;1.70;;
57567;SDS011;43403;51.948;5.922;2023-03-13T10:36:09;5.35;;;1.83;;
57567;SDS011;43403;51.948;5.922;2023-03-13T10:38:47;8.18;;;1.90;;
57567;SDS011;43403;51.948;5.922;2023-03-13T10:41:28;4.38;;;1.40;;
57567;SDS011;43403;51.948;5.922;2023-03-13T10:43:59;5.40;;;1.67;;
57567;SDS011;43403;51.948;5.922;2023-03-13T10:46:30;5.80;;;1.95;;
57567;SDS011;43403;51.948;5.922;2023-03-13T10:49:10;6.18;;;1.88;;
57567;SDS011;43403;51.948;5.922;2023-03-13T10:51:45;2.70;;;1.38;;
57567;SDS011;43403;51.948;5.922;2023-03-13T10:54:18;8.48;;;1.92;;
57567;SDS011;43403;51.948;5.922;2023-03-13T10:56:48;5.25;;;1.70;;
57567;SDS011;43403;51.948;5.922;2023-03-13T11:01:46;2.65;;;1.38;;
57567;SDS011;43403;51.948;5.922;2023-03-13T11:04:25;3.38;;;1.45;;
57567;SDS011;43403;51.948;5.922;2023-03-13T11:07:08;4.97;;;1.83;;
57567;SDS011;43403;51.948;5.922;2023-03-13T11:09:41;3.90;;;1.52;;
57567;SDS011;43403;51.948;5.922;2023-03-13T11:12:10;5.88;;;2.00;;
57567;SDS011;43403;51.948;5.922;2023-03-13T11:14:43;4.78;;;1.10;;
57567;SDS011;43403;51.948;5.922;2023-03-13T11:22:47;2.78;;;1.15;;
57567;SDS011;43403;51.948;5.922;2023-03-13T11:25:27;5.68;;;1.70;;
57567;SDS011;43403;51.948;5.922;2023-03-13T11:28:11;3.80;;;1.38;;
57567;SDS011;43403;51.948;5.922;2023-03-13T11:31:14;5.22;;;1.27;;
57567;SDS011;43403;51.948;5.922;2023-03-13T11:36:20;3.03;;;1.30;;
57567;SDS011;43403;51.948;5.922;2023-03-13T11:41:41;5.15;;;1.40;;
57567;SDS011;43403;51.948;5.922;2023-03-13T11:44:21;1.87;;;1.10;;
57567;SDS011;43403;51.948;5.922;2023-03-13T12:00:46;2.03;;;0.98;;
57567;SDS011;43403;51.948;5.922;2023-03-13T12:03:21;1.95;;;1.08;;
57567;SDS011;43403;51.948;5.922;2023-03-13T12:06:13;3.85;;;1.30;;
57567;SDS011;43403;51.948;5.922;2023-03-13T12:11:40;2.78;;;1.25;;
57567;SDS011;43403;51.948;5.922;2023-03-13T12:17:09;3.58;;;1.20;;
57567;SDS011;43403;51.948;5.922;2023-03-13T12:19:52;3.13;;;1.00;;
57567;SDS011;43403;51.948;5.922;2023-03-13T12:22:26;2.17;;;0.90;;
57567;SDS011;43403;51.948;5.922;2023-03-13T12:25:09;5.45;;;1.08;;
57567;SDS011;43403;51.948;5.922;2023-03-13T12:27:46;5.00;;;1.00;;
57567;SDS011;43403;51.948;5.922;2023-03-13T12:30:21;5.18;;;1.20;;
57567;SDS011;43403;51.948;5.922;2023-03-13T12:35:38;7.95;;;0.90;;
57567;SDS011;43403;51.948;5.922;2023-03-13T12:43:36;4.22;;;1.20;;
57567;SDS011;43403;51.948;5.922;2023-03-13T12:46:12;4.68;;;1.13;;
57567;SDS011;43403;51.948;5.922;2023-03-13T12:49:21;5.82;;;1.55;;
57567;SDS011;43403;51.948;5.922;2023-03-13T12:57:27;4.35;;;1.20;;
57567;SDS011;43403;51.948;5.922;2023-03-13T13:00:11;5.32;;;1.60;;
57567;SDS011;43403;51.948;5.922;2023-03-13T13:02:45;2.42;;;1.27;;
57567;SDS011;43403;51.948;5.922;2023-03-13T13:05:19;3.88;;;1.20;;
57567;SDS011;43403;51.948;5.922;2023-03-13T13:07:53;5.10;;;1.40;;
57567;SDS011;43403;51.948;5.922;2023-03-13T13:10:22;6.28;;;1.20;;
57567;SDS011;43403;51.948;5.922;2023-03-13T13:16:02;2.80;;;1.10;;
57567;SDS011;43403;51.948;5.922;2023-03-13T13:18:32;4.25;;;1.23;;
57567;SDS011;43403;51.948;5.922;2023-03-13T13:23:34;3.80;;;1.33;;
57567;SDS011;43403;51.948;5.922;2023-03-13T13:28:52;3.53;;;1.30;;
57567;SDS011;43403;51.948;5.922;2023-03-13T13:36:53;5.03;;;1.45;;
57567;SDS011;43403;51.948;5.922;2023-03-13T13:39:43;4.38;;;1.35;;
57567;SDS011;43403;51.948;5.922;2023-03-13T13:47:41;5.10;;;1.02;;
57567;SDS011;43403;51.948;5.922;2023-03-13T13:52:47;6.40;;;1.05;;
57567;SDS011;43403;51.948;5.922;2023-03-13T13:55:29;3.15;;;0.90;;
57567;SDS011;43403;51.948;5.922;2023-03-13T13:58:21;3.80;;;1.23;;
57567;SDS011;43403;51.948;5.922;2023-03-13T14:00:54;3.63;;;1.23;;
57567;SDS011;43403;51.948;5.922;2023-03-13T14:03:27;9.80;;;1.05;;
57567;SDS011;43403;51.948;5.922;2023-03-13T14:05:59;4.88;;;0.90;;
57567;SDS011;43403;51.948;5.922;2023-03-13T14:08:29;5.15;;;1.13;;
57567;SDS011;43403;51.948;5.922;2023-03-13T14:13:39;3.63;;;0.93;;
57567;SDS011;43403;51.948;5.922;2023-03-13T14:16:20;4.20;;;1.27;;
57567;SDS011;43403;51.948;5.922;2023-03-13T14:18:50;6.88;;;1.20;;
57567;SDS011;43403;51.948;5.922;2023-03-13T14:21:21;4.95;;;0.90;;
57567;SDS011;43403;51.948;5.922;2023-03-13T14:23:49;5.78;;;1.40;;
57567;SDS011;43403;51.948;5.922;2023-03-13T14:26:17;4.72;;;1.10;;
57567;SDS011;43403;51.948;5.922;2023-03-13T14:28:53;5.15;;;1.40;;
57567;SDS011;43403;51.948;5.922;2023-03-13T14:31:26;3.97;;;1.20;;
57567;SDS011;43403;51.948;5.922;2023-03-13T14:33:54;2.95;;;1.10;;
57567;SDS011;43403;51.948;5.922;2023-03-13T14:36:23;3.88;;;1.35;;
57567;SDS011;43403;51.948;5.922;2023-03-13T14:38:59;3.08;;;0.90;;
57567;SDS011;43403;51.948;5.922;2023-03-13T14:44:06;3.13;;;1.08;;
57567;SDS011;43403;51.948;5.922;2023-03-13T14:46:53;7.25;;;1.63;;
57567;SDS011;43403;51.948;5.922;2023-03-13T14:49:24;7.38;;;1.55;;
57567;SDS011;43403;51.948;5.922;2023-03-13T14:51:58;6.53;;;1.60;;
57567;SDS011;43403;51.948;5.922;2023-03-13T14:54:31;5.20;;;1.40;;
57567;SDS011;43403;51.948;5.922;2023-03-13T14:59:28;5.20;;;1.20;;
57567;SDS011;43403;51.948;5.922;2023-03-13T15:02:29;6.80;;;1.55;;
57567;SDS011;43403;51.948;5.922;2023-03-13T15:04:57;3.50;;;1.00;;
57567;SDS011;43403;51.948;5.922;2023-03-13T15:07:34;3.75;;;1.23;;
57567;SDS011;43403;51.948;5.922;2023-03-13T15:12:49;4.18;;;1.30;;
57567;SDS011;43403;51.948;5.922;2023-03-13T15:15:16;5.88;;;1.60;;
57567;SDS011;43403;51.948;5.922;2023-03-13T15:17:43;6.38;;;1.60;;
57567;SDS011;43403;51.948;5.922;2023-03-13T15:20:11;7.93;;;1.52;;
57567;SDS011;43403;51.948;5.922;2023-03-13T15:22:40;6.22;;;1.35;;
57567;SDS011;43403;51.948;5.922;2023-03-13T15:25:17;4.22;;;1.38;;
57567;SDS011;43403;51.948;5.922;2023-03-13T15:27:45;7.05;;;1.63;;
57567;SDS011;43403;51.948;5.922;2023-03-13T15:30:16;9.10;;;1.95;;
57567;SDS011;43403;51.948;5.922;2023-03-13T15:32:49;6.90;;;1.77;;
57567;SDS011;43403;51.948;5.922;2023-03-13T15:35:26;6.55;;;1.70;;
57567;SDS011;43403;51.948;5.922;2023-03-13T15:37:55;8.07;;;1.60;;
57567;SDS011;43403;51.948;5.922;2023-03-13T15:40:22;8.07;;;2.08;;
57567;SDS011;43403;51.948;5.922;2023-03-13T15:42:50;5.53;;;1.40;;
57567;SDS011;43403;51.948;5.922;2023-03-13T15:45:18;11.52;;;1.85;;
57567;SDS011;43403;51.948;5.922;2023-03-13T15:47:46;7.80;;;1.98;;
57567;SDS011;43403;51.948;5.922;2023-03-13T15:50:15;9.20;;;1.80;;
57567;SDS011;43403;51.948;5.922;2023-03-13T15:52:43;9.85;;;2.28;;
57567;SDS011;43403;51.948;5.922;2023-03-13T15:55:11;6.50;;;1.50;;
57567;SDS011;43403;51.948;5.922;2023-03-13T15:57:43;9.35;;;2.10;;
57567;SDS011;43403;51.948;5.922;2023-03-13T16:00:17;12.23;;;2.00;;
57567;SDS011;43403;51.948;5.922;2023-03-13T16:02:46;10.18;;;2.28;;
57567;SDS011;43403;51.948;5.922;2023-03-13T16:05:13;7.75;;;1.58;;
57567;SDS011;43403;51.948;5.922;2023-03-13T16:07:40;7.97;;;1.80;;
57567;SDS011;43403;51.948;5.922;2023-03-13T16:10:17;8.93;;;1.80;;
57567;SDS011;43403;51.948;5.922;2023-03-13T16:12:50;8.07;;;1.52;;
57567;SDS011;43403;51.948;5.922;2023-03-13T16:15:17;8.32;;;1.70;;
57567;SDS011;43403;51.948;5.922;2023-03-13T16:17:43;6.28;;;1.60;;
57567;SDS011;43403;51.948;5.922;2023-03-13T16:20:14;6.25;;;1.67;;
57567;SDS011;43403;51.948;5.922;2023-03-13T16:22:46;7.70;;;1.50;;
57567;SDS011;43403;51.948;5.922;2023-03-13T16:25:13;4.72;;;1.75;;
57567;SDS011;43403;51.948;5.922;2023-03-13T16:27:40;6.25;;;1.52;;
57567;SDS011;43403;51.948;5.922;2023-03-13T16:33:09;6.85;;;1.20;;
57567;SDS011;43403;51.948;5.922;2023-03-13T16:35:36;3.13;;;1.17;;
57567;SDS011;43403;51.948;5.922;2023-03-13T16:38:03;7.18;;;1.40;;
57567;SDS011;43403;51.948;5.922;2023-03-13T16:40:31;11.65;;;4.90;;
57567;SDS011;43403;51.948;5.922;2023-03-13T16:42:58;7.55;;;1.73;;
57567;SDS011;43403;51.948;5.922;2023-03-13T16:45:26;7.13;;;2.13;;
57567;SDS011;43403;51.948;5.922;2023-03-13T16:47:53;10.35;;;2.03;;
57567;SDS011;43403;51.948;5.922;2023-03-13T16:52:52;9.73;;;2.20;;
57567;SDS011;43403;51.948;5.922;2023-03-13T16:55:19;10.32;;;1.90;;
57567;SDS011;43403;51.948;5.922;2023-03-13T16:57:46;10.70;;;2.38;;
57567;SDS011;43403;51.948;5.922;2023-03-13T17:00:14;14.13;;;3.28;;